createdAt,value
2022-10-22T00:01:41.191Z,9.18
2022-10-22T00:04:08.074Z,9.10
2022-10-22T00:06:35.313Z,10.32
2022-10-22T00:09:02.130Z,11.05
2022-10-22T00:11:28.826Z,10.02
2022-10-22T00:13:55.947Z,10.23
2022-10-22T00:16:22.558Z,10.73
2022-10-22T00:18:49.202Z,12.60
2022-10-22T00:21:15.823Z,13.60
2022-10-22T00:23:43.448Z,12.75
2022-10-22T00:26:10.932Z,13.45
2022-10-22T00:28:38.147Z,13.50
2022-10-22T00:31:05.335Z,14.25
2022-10-22T00:33:32.092Z,14.68
2022-10-22T00:35:58.901Z,16.65
2022-10-22T00:38:25.651Z,15.93
2022-10-22T00:40:52.339Z,16.50
2022-10-22T00:43:20.365Z,16.48
2022-10-22T00:45:47.313Z,14.55
2022-10-22T00:48:18.808Z,16.25
2022-10-22T00:50:58.189Z,15.77
2022-10-22T00:53:41.588Z,14.00
2022-10-22T00:56:09.727Z,13.57
2022-10-22T00:58:39.172Z,13.07
2022-10-22T01:01:09.257Z,12.02
2022-10-22T01:03:36.195Z,14.05
2022-10-22T01:06:05.267Z,13.20
2022-10-22T01:08:54.516Z,13.13
2022-10-22T01:11:57.260Z,13.05
2022-10-22T01:15:02.398Z,12.65
2022-10-22T01:18:02.617Z,12.18
2022-10-22T01:21:04.846Z,12.23
2022-10-22T01:24:15.547Z,14.50
2022-10-22T01:27:12.694Z,14.60
2022-10-22T01:29:50.555Z,13.15
2022-10-22T01:32:23.639Z,13.60
2022-10-22T01:35:00.303Z,13.45
2022-10-22T01:37:30.389Z,12.13
2022-10-22T01:40:00.935Z,12.52
2022-10-22T01:42:27.883Z,12.23
2022-10-22T01:44:54.500Z,11.82
2022-10-22T01:47:44.110Z,11.90
2022-10-22T01:50:34.365Z,12.52
2022-10-22T01:53:00.896Z,11.52
2022-10-22T01:55:33.614Z,11.52
2022-10-22T01:58:35.499Z,11.55
2022-10-22T02:01:08.070Z,10.93
2022-10-22T02:03:42.795Z,10.68
2022-10-22T02:06:17.451Z,11.77
2022-10-22T02:08:45.810Z,13.85
2022-10-22T02:11:14.827Z,10.60
2022-10-22T02:13:48.767Z,11.10
2022-10-22T02:16:39.544Z,8.50
2022-10-22T02:19:15.902Z,9.65
2022-10-22T02:21:42.839Z,11.20
2022-10-22T02:24:09.483Z,12.50
2022-10-22T02:26:42.798Z,12.38
2022-10-22T02:29:18.846Z,10.27
2022-10-22T02:31:48.789Z,11.85
2022-10-22T02:34:28.438Z,11.40
2022-10-22T02:36:56.245Z,11.77
2022-10-22T02:39:23.240Z,12.25
2022-10-22T02:41:49.870Z,10.82
2022-10-22T02:44:20.514Z,10.75
2022-10-22T02:46:47.135Z,10.68
2022-10-22T02:49:14.135Z,11.50
2022-10-22T02:51:40.726Z,10.77
2022-10-22T02:54:07.334Z,11.10
2022-10-22T02:56:34.167Z,10.30
2022-10-22T02:59:00.777Z,12.95
2022-10-22T03:01:27.451Z,11.82
2022-10-22T03:03:54.109Z,12.82
2022-10-22T03:06:20.739Z,11.57
2022-10-22T03:08:47.461Z,11.68
2022-10-22T03:11:14.068Z,11.48
2022-10-22T03:13:40.728Z,11.35
2022-10-22T03:16:07.429Z,12.25
2022-10-22T03:18:34.342Z,11.85
2022-10-22T03:21:20.470Z,13.23
2022-10-22T03:23:48.201Z,16.88
2022-10-22T03:26:15.431Z,16.73
2022-10-22T03:28:42.527Z,17.02
2022-10-22T03:31:09.174Z,14.80
2022-10-22T03:33:35.746Z,15.30
2022-10-22T03:36:02.475Z,13.30
2022-10-22T03:38:30.105Z,12.93
2022-10-22T03:40:56.853Z,13.45
2022-10-22T03:43:23.645Z,14.20
2022-10-22T03:45:50.214Z,15.60
2022-10-22T03:48:16.823Z,16.25
2022-10-22T03:50:43.403Z,19.95
2022-10-22T03:53:10.716Z,15.23
2022-10-22T03:55:38.387Z,15.63
2022-10-22T03:58:05.616Z,19.45
2022-10-22T04:00:32.691Z,15.82
2022-10-22T04:02:59.290Z,14.98
2022-10-22T04:05:26.068Z,27.50
2022-10-22T04:07:52.715Z,15.35
2022-10-22T04:10:19.315Z,17.88
2022-10-22T04:12:48.787Z,15.52
2022-10-22T04:15:15.526Z,17.50
2022-10-22T04:17:42.503Z,12.88
2022-10-22T04:20:10.042Z,13.15
2022-10-22T04:22:36.978Z,11.82
2022-10-22T04:25:04.806Z,11.27
2022-10-22T04:27:32.594Z,10.23
2022-10-22T04:29:59.381Z,11.32
2022-10-22T04:32:29.471Z,11.77
2022-10-22T04:34:56.065Z,12.07
2022-10-22T04:37:22.641Z,10.13
2022-10-22T04:39:49.343Z,14.45
2022-10-22T04:42:15.969Z,16.58
2022-10-22T04:44:42.636Z,28.98
2022-10-22T04:47:09.218Z,16.50
2022-10-22T04:49:35.807Z,35.67
2022-10-22T04:52:02.413Z,15.40
2022-10-22T04:54:32.219Z,13.10
2022-10-22T04:56:59.934Z,13.18
2022-10-22T04:59:26.593Z,17.33
2022-10-22T05:01:53.163Z,9.40
2022-10-22T05:04:19.890Z,19.73
2022-10-22T05:06:46.771Z,12.13
2022-10-22T05:09:19.679Z,11.95
2022-10-22T05:11:49.143Z,12.75
2022-10-22T05:14:26.210Z,12.93
2022-10-22T05:16:53.033Z,16.67
2022-10-22T05:19:26.481Z,9.95
2022-10-22T05:21:55.082Z,11.60
2022-10-22T05:24:22.241Z,11.30
2022-10-22T05:26:50.957Z,10.68
2022-10-22T05:29:17.607Z,11.93
2022-10-22T05:31:44.305Z,11.20
2022-10-22T05:34:11.289Z,11.18
2022-10-22T05:36:38.049Z,10.90
2022-10-22T05:39:04.854Z,11.40
2022-10-22T05:41:32.909Z,11.55
2022-10-22T05:44:00.513Z,11.10
2022-10-22T05:46:30.052Z,10.05
2022-10-22T05:48:59.416Z,10.27
2022-10-22T05:51:27.977Z,8.50
2022-10-22T05:53:57.249Z,9.75
2022-10-22T05:56:25.165Z,10.32
2022-10-22T05:58:52.241Z,10.27
2022-10-22T06:01:30.354Z,9.52
2022-10-22T06:03:59.302Z,9.57
2022-10-22T06:06:30.332Z,8.25
2022-10-22T06:09:01.617Z,7.85
2022-10-22T06:11:31.092Z,7.97
2022-10-22T06:14:00.778Z,8.25
2022-10-22T06:16:29.553Z,6.20
2022-10-22T06:18:56.322Z,6.65
2022-10-22T06:21:22.915Z,7.53
2022-10-22T06:23:49.482Z,7.68
2022-10-22T06:26:17.871Z,7.18
2022-10-22T06:28:44.517Z,5.93
2022-10-22T06:31:11.140Z,5.18
2022-10-22T06:33:42.314Z,5.50
2022-10-22T06:36:11.905Z,8.18
2022-10-22T06:38:39.165Z,7.13
2022-10-22T06:41:08.305Z,5.53
2022-10-22T06:43:35.534Z,5.05
2022-10-22T06:46:04.135Z,4.20
2022-10-22T06:48:31.238Z,5.05
2022-10-22T06:51:03.122Z,5.38
2022-10-22T06:53:30.698Z,5.20
2022-10-22T06:55:57.544Z,4.40
2022-10-22T06:58:24.551Z,4.80
2022-10-22T07:01:03.973Z,3.90
2022-10-22T07:03:30.586Z,2.75
2022-10-22T07:06:03.062Z,2.85
2022-10-22T07:08:30.308Z,3.50
2022-10-22T07:11:04.875Z,2.55
2022-10-22T07:13:31.456Z,2.80
2022-10-22T07:15:58.088Z,3.00
2022-10-22T07:18:24.821Z,2.55
2022-10-22T07:20:51.384Z,2.30
2022-10-22T07:23:18.020Z,1.42
2022-10-22T07:25:44.955Z,1.20
2022-10-22T07:28:12.052Z,2.30
2022-10-22T07:30:39.450Z,1.70
2022-10-22T07:33:06.422Z,1.60
2022-10-22T07:35:34.505Z,1.80
2022-10-22T07:38:01.294Z,2.15
2022-10-22T07:40:27.975Z,2.00
2022-10-22T07:42:54.627Z,1.70
2022-10-22T07:45:21.304Z,2.10
2022-10-22T07:47:48.543Z,2.08
2022-10-22T07:50:16.142Z,1.90
2022-10-22T07:52:43.308Z,1.85
2022-10-22T07:55:11.183Z,1.55
2022-10-22T07:57:37.791Z,1.20
2022-10-22T08:00:07.181Z,1.05
2022-10-22T08:02:33.831Z,1.50
2022-10-22T08:05:00.466Z,1.40
2022-10-22T08:07:27.362Z,1.60
2022-10-22T08:09:53.982Z,1.10
2022-10-22T08:12:20.718Z,1.02
2022-10-22T08:14:47.318Z,1.13
2022-10-22T08:17:13.906Z,1.10
2022-10-22T08:19:40.514Z,1.27
2022-10-22T08:22:07.493Z,1.20
2022-10-22T08:24:34.180Z,1.20
2022-10-22T08:27:00.875Z,1.38
2022-10-22T08:29:27.467Z,1.23
2022-10-22T08:31:54.358Z,1.20
2022-10-22T08:34:21.074Z,1.00
2022-10-22T08:36:47.995Z,1.02
2022-10-22T08:39:14.679Z,1.30
2022-10-22T08:42:01.211Z,1.40
2022-10-22T08:44:42.993Z,1.50
2022-10-22T08:47:27.150Z,2.00
2022-10-22T08:49:55.219Z,2.25
2022-10-22T08:52:22.065Z,2.60
2022-10-22T08:54:52.490Z,2.80
2022-10-22T08:57:35.948Z,2.17
2022-10-22T09:02:59.531Z,2.08
2022-10-22T09:05:41.213Z,2.03
2022-10-22T09:08:12.443Z,1.83
2022-10-22T09:10:43.778Z,1.63
2022-10-22T09:13:16.067Z,1.67
2022-10-22T09:15:44.996Z,1.70
2022-10-22T09:18:32.054Z,2.13
2022-10-22T09:21:11.265Z,2.10
2022-10-22T09:23:55.958Z,1.98
2022-10-22T09:26:22.579Z,1.92
2022-10-22T09:28:51.200Z,1.75
2022-10-22T09:31:18.323Z,2.03
2022-10-22T09:33:48.852Z,2.03
2022-10-22T09:36:21.754Z,2.00
2022-10-22T09:38:50.851Z,1.70
2022-10-22T09:41:19.877Z,1.90
2022-10-22T09:43:48.296Z,1.75
2022-10-22T09:46:21.574Z,1.90
2022-10-22T09:49:13.251Z,2.45
2022-10-22T09:51:51.932Z,1.80
2022-10-22T09:54:25.823Z,2.17
2022-10-22T09:56:59.382Z,2.10
2022-10-22T09:59:37.141Z,2.15
2022-10-22T10:02:20.040Z,1.83
2022-10-22T10:04:57.838Z,2.50
2022-10-22T10:07:26.925Z,2.10
2022-10-22T10:09:54.659Z,2.33
2022-10-22T10:12:30.827Z,2.33
2022-10-22T10:15:16.296Z,2.00
2022-10-22T10:17:48.971Z,2.13
2022-10-22T10:20:41.095Z,1.70
2022-10-22T10:23:13.594Z,1.50
2022-10-22T10:25:40.087Z,2.03
2022-10-22T10:28:15.459Z,1.90
2022-10-22T10:30:57.306Z,1.52
2022-10-22T10:33:41.789Z,1.50
2022-10-22T10:36:20.951Z,1.35
2022-10-22T10:39:18.363Z,1.48
2022-10-22T10:42:28.240Z,1.58
2022-10-22T10:45:26.793Z,1.60
2022-10-22T10:48:05.308Z,2.00
2022-10-22T10:50:42.787Z,2.15
2022-10-22T10:53:24.511Z,2.47
2022-10-22T10:56:04.792Z,1.70
2022-10-22T10:58:34.083Z,1.45
2022-10-22T11:01:15.373Z,1.40
2022-10-22T11:03:55.970Z,1.40
2022-10-22T11:06:25.540Z,1.33
2022-10-22T11:09:00.172Z,1.48
2022-10-22T11:11:47.103Z,1.35
2022-10-22T11:14:23.440Z,1.40
2022-10-22T11:16:51.828Z,1.85
2022-10-22T11:19:46.269Z,1.67
2022-10-22T11:22:26.795Z,1.65
2022-10-22T11:25:18.286Z,1.80
2022-10-22T11:28:11.553Z,1.40
2022-10-22T11:30:40.921Z,1.30
2022-10-22T11:33:12.811Z,1.40
2022-10-22T11:35:42.664Z,1.13
2022-10-22T11:38:15.110Z,1.42
2022-10-22T11:40:50.439Z,1.40
2022-10-22T11:43:57.244Z,1.40
2022-10-22T11:46:23.816Z,1.30
2022-10-22T11:49:04.847Z,1.30
2022-10-22T11:51:37.212Z,1.40
2022-10-22T11:54:29.823Z,1.20
2022-10-22T11:57:25.439Z,1.23
2022-10-22T12:00:00.690Z,1.42
2022-10-22T12:02:45.003Z,1.40
2022-10-22T12:05:24.011Z,1.25
2022-10-22T12:07:57.175Z,1.30
2022-10-22T12:13:12.810Z,1.30
2022-10-22T12:15:51.870Z,1.75
2022-10-22T12:18:18.549Z,1.70
2022-10-22T12:20:51.044Z,1.70
2022-10-22T12:23:17.966Z,2.00
2022-10-22T12:25:44.597Z,1.55
2022-10-22T12:28:13.259Z,1.20
2022-10-22T12:30:39.902Z,1.13
2022-10-22T12:33:18.056Z,1.15
2022-10-22T12:35:46.734Z,1.10
2022-10-22T12:38:21.333Z,0.82
2022-10-22T12:40:51.222Z,1.00
2022-10-22T12:43:23.859Z,1.10
2022-10-22T12:45:51.702Z,1.30
2022-10-22T12:48:30.854Z,1.00
2022-10-22T12:51:03.903Z,0.75
2022-10-22T12:53:37.887Z,0.75
2022-10-22T12:56:07.142Z,1.15
2022-10-22T12:58:39.628Z,0.75
2022-10-22T13:01:06.900Z,0.50
2022-10-22T13:03:41.623Z,0.77
2022-10-22T13:06:20.302Z,0.80
2022-10-22T13:09:03.933Z,0.65
2022-10-22T13:11:38.292Z,0.50
2022-10-22T13:14:15.855Z,0.75
2022-10-22T13:16:42.465Z,0.88
2022-10-22T13:19:47.329Z,0.70
2022-10-22T13:22:37.766Z,0.80
2022-10-22T13:25:17.216Z,0.60
2022-10-22T13:27:48.658Z,0.70
2022-10-22T13:30:22.763Z,0.57
2022-10-22T13:32:56.001Z,0.70
2022-10-22T13:37:51.440Z,0.93
2022-10-22T13:40:18.539Z,0.65
2022-10-22T13:42:45.175Z,1.08
2022-10-22T13:45:13.773Z,0.70
2022-10-22T13:47:41.211Z,0.73
2022-10-22T13:50:14.803Z,1.05
2022-10-22T13:52:45.136Z,0.80
2022-10-22T13:55:25.710Z,0.70
2022-10-22T13:58:10.298Z,0.77
2022-10-22T14:00:42.321Z,0.93
2022-10-22T14:03:15.194Z,0.80
2022-10-22T14:05:41.914Z,0.80
2022-10-22T14:08:17.839Z,0.80
2022-10-22T14:10:44.650Z,0.90
2022-10-22T14:13:12.551Z,0.60
2022-10-22T14:15:40.830Z,0.70
2022-10-22T14:18:11.385Z,0.70
2022-10-22T14:20:40.990Z,0.47
2022-10-22T14:25:51.126Z,0.70
2022-10-22T14:28:17.982Z,0.70
2022-10-22T14:30:45.210Z,0.60
2022-10-22T14:33:28.992Z,0.47
2022-10-22T14:35:59.966Z,1.00
2022-10-22T14:38:26.727Z,1.20
2022-10-22T14:40:53.335Z,1.17
2022-10-22T14:43:26.123Z,1.20
2022-10-22T14:45:52.794Z,1.17
2022-10-22T14:50:51.193Z,1.00
2022-10-22T14:53:17.826Z,1.00
2022-10-22T14:55:47.212Z,0.80
2022-10-22T14:58:14.427Z,1.10
2022-10-22T15:00:42.072Z,1.05
2022-10-22T15:03:08.849Z,0.90
2022-10-22T15:05:36.349Z,1.20
2022-10-22T15:08:03.339Z,0.80
2022-10-22T15:10:29.915Z,1.02
2022-10-22T15:12:56.525Z,0.93
2022-10-22T15:15:23.816Z,0.95
2022-10-22T15:17:51.273Z,0.50
2022-10-22T15:20:17.969Z,0.70
2022-10-22T15:22:45.377Z,0.90
2022-10-22T15:25:13.457Z,1.30
2022-10-22T15:27:40.195Z,0.90
2022-10-22T15:30:07.585Z,0.73
2022-10-22T15:32:34.420Z,0.73
2022-10-22T15:35:05.960Z,0.95
2022-10-22T15:37:32.595Z,1.10
2022-10-22T15:40:00.506Z,1.05
2022-10-22T15:42:27.086Z,1.10
2022-10-22T15:45:00.144Z,0.82
2022-10-22T15:49:56.434Z,1.00
2022-10-22T15:52:23.058Z,1.90
2022-10-22T15:54:49.720Z,1.95
2022-10-22T15:57:16.416Z,1.80
2022-10-22T15:59:43.111Z,1.50
2022-10-22T16:02:11.397Z,1.70
2022-10-22T16:04:38.684Z,1.10
2022-10-22T16:07:05.325Z,2.47
2022-10-22T16:09:31.932Z,2.03
2022-10-22T16:11:58.569Z,1.98
2022-10-22T16:14:25.398Z,1.33
2022-10-22T16:16:54.298Z,1.50
2022-10-22T16:19:22.733Z,1.17
2022-10-22T16:21:52.202Z,1.02
2022-10-22T16:24:19.667Z,1.30
2022-10-22T16:26:46.606Z,1.10
2022-10-22T16:29:13.510Z,0.93
2022-10-22T16:31:42.860Z,1.00
2022-10-22T16:34:09.726Z,0.80
2022-10-22T16:36:37.176Z,0.90
2022-10-22T16:39:05.226Z,1.05
2022-10-22T16:41:37.946Z,1.20
2022-10-22T16:44:07.839Z,1.25
2022-10-22T16:46:36.772Z,1.33
2022-10-22T16:49:03.356Z,1.05
2022-10-22T16:51:30.093Z,1.17
2022-10-22T16:53:57.535Z,1.33
2022-10-22T16:56:25.499Z,1.40
2022-10-22T16:58:54.783Z,1.60
2022-10-22T17:01:24.260Z,1.40
2022-10-22T17:03:50.884Z,1.77
2022-10-22T17:06:18.247Z,1.63
2022-10-22T17:08:45.054Z,1.48
2022-10-22T17:11:17.754Z,1.40
2022-10-22T17:13:48.726Z,1.40
2022-10-22T17:16:17.271Z,1.52
2022-10-22T17:21:18.532Z,1.90
2022-10-22T17:23:45.852Z,2.17
2022-10-22T17:26:20.430Z,1.90
2022-10-22T17:28:47.969Z,2.45
2022-10-22T17:31:25.850Z,1.88
2022-10-22T17:33:54.840Z,2.00
2022-10-22T17:36:22.920Z,1.80
2022-10-22T17:38:55.022Z,2.08
2022-10-22T17:41:25.754Z,2.17
2022-10-22T17:43:52.407Z,2.00
2022-10-22T17:46:22.259Z,1.80
2022-10-22T17:48:53.629Z,1.52
2022-10-22T17:51:20.883Z,2.05
2022-10-22T17:53:48.170Z,39.80
2022-10-22T17:56:17.305Z,5.43
2022-10-22T17:58:44.055Z,3.00
2022-10-22T18:01:20.958Z,4.28
2022-10-22T18:03:47.775Z,6.63
2022-10-22T18:06:14.463Z,39.42
2022-10-22T18:08:41.183Z,22.10
2022-10-22T18:11:12.960Z,8.43
2022-10-22T18:13:39.575Z,9.45
2022-10-22T18:16:06.497Z,4.53
2022-10-22T18:18:35.135Z,3.60
2022-10-22T18:21:02.450Z,8.02
2022-10-22T18:23:29.084Z,3.97
2022-10-22T18:25:55.828Z,2.58
2022-10-22T18:28:22.482Z,3.58
2022-10-22T18:30:49.203Z,2.20
2022-10-22T18:33:19.022Z,8.85
2022-10-22T18:35:48.429Z,14.45
2022-10-22T18:38:15.095Z,11.55
2022-10-22T18:40:46.688Z,2.63
2022-10-22T18:43:13.422Z,2.15
2022-10-22T18:45:44.533Z,7.10
2022-10-22T18:48:13.833Z,63.50
2022-10-22T18:50:40.480Z,8.52
2022-10-22T18:53:07.069Z,4.18
2022-10-22T18:55:34.904Z,41.25
2022-10-22T18:58:01.474Z,38.42
2022-10-22T19:00:28.114Z,8.43
2022-10-22T19:02:54.976Z,3.35
2022-10-22T19:05:21.839Z,3.20
2022-10-22T19:07:50.297Z,4.80
2022-10-22T19:10:17.543Z,5.03
2022-10-22T19:12:44.156Z,19.17
2022-10-22T19:15:10.897Z,29.33
2022-10-22T19:17:37.569Z,8.70
2022-10-22T19:20:04.710Z,2.10
2022-10-22T19:22:31.957Z,1.98
2022-10-22T19:24:58.961Z,1.90
2022-10-22T19:27:25.615Z,1.50
2022-10-22T19:29:52.282Z,1.55
2022-10-22T19:32:20.138Z,1.70
2022-10-22T19:34:47.242Z,1.95
2022-10-22T19:37:13.838Z,1.70
2022-10-22T19:39:40.433Z,1.85
2022-10-22T19:42:07.053Z,1.88
2022-10-22T19:44:33.730Z,1.58
2022-10-22T19:47:00.318Z,1.33
2022-10-22T19:49:26.957Z,1.50
2022-10-22T19:51:53.538Z,1.60
2022-10-22T19:54:20.605Z,1.60
2022-10-22T19:56:48.101Z,1.45
2022-10-22T19:59:16.156Z,1.40
2022-10-22T20:01:43.087Z,1.20
2022-10-22T20:04:15.147Z,1.30
2022-10-22T20:06:42.958Z,1.23
2022-10-22T20:09:11.160Z,1.55
2022-10-22T20:11:37.937Z,1.35
2022-10-22T20:14:04.564Z,1.20
2022-10-22T20:16:31.699Z,1.20
2022-10-22T20:19:02.983Z,1.17
2022-10-22T20:21:29.969Z,1.40
2022-10-22T20:23:57.550Z,1.30
2022-10-22T20:26:27.861Z,1.33
2022-10-22T20:28:55.807Z,1.23
2022-10-22T20:31:24.287Z,1.58
2022-10-22T20:33:51.242Z,1.50
2022-10-22T20:36:22.388Z,1.20
2022-10-22T20:38:50.267Z,1.08
2022-10-22T20:41:20.655Z,1.38
2022-10-22T20:43:49.233Z,1.30
2022-10-22T20:46:27.963Z,1.48
2022-10-22T20:48:58.389Z,1.48
2022-10-22T20:51:25.009Z,1.42
2022-10-22T20:53:51.665Z,1.13
2022-10-22T20:56:19.516Z,1.27
2022-10-22T20:58:49.477Z,1.05
2022-10-22T21:01:22.208Z,1.45
2022-10-22T21:03:51.404Z,1.15
2022-10-22T21:06:22.920Z,1.10
2022-10-22T21:08:50.681Z,1.27
2022-10-22T21:11:18.460Z,1.25
2022-10-22T21:13:45.028Z,1.30
2022-10-22T21:16:13.930Z,1.40
2022-10-22T21:18:40.800Z,1.45
2022-10-22T21:21:08.462Z,1.30
2022-10-22T21:23:36.606Z,1.20
2022-10-22T21:26:03.394Z,1.40
2022-10-22T21:31:06.839Z,1.20
2022-10-22T21:33:38.062Z,1.30
2022-10-22T21:36:06.144Z,1.00
2022-10-22T21:38:33.412Z,1.10
2022-10-22T21:41:05.233Z,1.02
2022-10-22T21:43:31.793Z,1.80
2022-10-22T21:46:08.854Z,1.20
2022-10-22T21:48:36.521Z,1.10
2022-10-22T21:51:12.177Z,1.10
2022-10-22T21:53:39.536Z,1.50
2022-10-22T21:56:07.127Z,1.08
2022-10-22T21:58:35.533Z,1.27
2022-10-22T22:01:02.804Z,1.15
2022-10-22T22:03:29.450Z,1.00
2022-10-22T22:06:01.714Z,8.50
2022-10-22T22:08:28.397Z,2.15
2022-10-22T22:11:02.686Z,1.02
2022-10-22T22:13:29.311Z,1.48
2022-10-22T22:16:03.422Z,1.30
2022-10-22T22:18:31.098Z,0.90
2022-10-22T22:20:59.073Z,0.98
2022-10-22T22:23:26.330Z,0.98
2022-10-22T22:25:52.988Z,1.25
2022-10-22T22:28:19.565Z,1.10
2022-10-22T22:30:46.138Z,1.05
2022-10-22T22:33:12.759Z,1.10
2022-10-22T22:38:10.793Z,1.58
2022-10-22T22:40:41.227Z,0.90
2022-10-22T22:43:08.547Z,2.00
2022-10-22T22:45:35.658Z,2.90
2022-10-22T22:48:03.154Z,1.63
2022-10-22T22:50:30.502Z,1.50
2022-10-22T22:52:57.125Z,1.27
2022-10-22T22:55:23.749Z,1.20
2022-10-22T22:57:50.511Z,1.30
2022-10-22T23:00:17.342Z,1.50
2022-10-22T23:02:44.210Z,1.40
2022-10-22T23:05:11.125Z,1.33
2022-10-22T23:07:37.685Z,1.33
2022-10-22T23:10:04.424Z,1.42
2022-10-22T23:12:30.996Z,1.60
2022-10-22T23:15:02.018Z,1.50
2022-10-22T23:17:28.896Z,1.42
2022-10-22T23:19:55.510Z,1.38
2022-10-22T23:22:22.080Z,1.35
2022-10-22T23:24:48.632Z,1.20
2022-10-22T23:27:15.224Z,1.65
2022-10-22T23:29:41.807Z,1.23
2022-10-22T23:32:14.311Z,1.48
2022-10-22T23:34:40.961Z,1.20
2022-10-22T23:37:07.650Z,1.40
2022-10-22T23:39:34.295Z,1.40
2022-10-22T23:42:00.944Z,1.30
2022-10-22T23:44:27.789Z,1.50
2022-10-22T23:46:55.230Z,1.25
2022-10-22T23:49:21.861Z,1.60
2022-10-22T23:51:48.505Z,1.35
2022-10-22T23:54:18.115Z,1.40
2022-10-22T23:56:45.151Z,1.40
2022-10-22T23:59:11.752Z,1.08
